createdAt,value
2024-04-22T00:01:36.176Z,97752.00
2024-04-22T00:04:04.217Z,97745.00
2024-04-22T00:06:32.157Z,97744.00
2024-04-22T00:08:59.615Z,97746.00
2024-04-22T00:11:27.186Z,97745.00
2024-04-22T00:13:54.697Z,97738.00
2024-04-22T00:16:22.349Z,97739.00
2024-04-22T00:18:49.803Z,97737.00
2024-04-22T00:21:17.250Z,97745.00
2024-04-22T00:23:47.908Z,97748.00
2024-04-22T00:26:15.566Z,97750.00
2024-04-22T00:28:43.031Z,97742.00
2024-04-22T00:31:10.692Z,97762.00
2024-04-22T00:33:38.376Z,97750.00
2024-04-22T00:36:06.257Z,97752.00
2024-04-22T00:38:33.992Z,97758.00
2024-04-22T00:41:01.546Z,97758.00
2024-04-22T00:43:29.036Z,97759.00
2024-04-22T00:45:58.009Z,97752.00
2024-04-22T00:48:25.998Z,97749.00
2024-04-22T00:50:55.179Z,97753.00
2024-04-22T00:53:23.287Z,97755.00
2024-04-22T00:55:52.099Z,97753.00
2024-04-22T00:58:20.733Z,97751.00
2024-04-22T01:00:50.035Z,97752.00
2024-04-22T01:03:18.223Z,97754.00
2024-04-22T01:05:45.843Z,97759.00
2024-04-22T01:08:14.267Z,97756.00
2024-04-22T01:10:41.832Z,97765.00
2024-04-22T01:13:09.629Z,97755.00
2024-04-22T01:15:37.268Z,97776.00
2024-04-22T01:18:05.036Z,97772.00
2024-04-22T01:20:32.553Z,97771.00
2024-04-22T01:23:00.108Z,97769.00
2024-04-22T01:25:29.707Z,97774.00
2024-04-22T01:27:57.169Z,97776.00
2024-04-22T01:30:24.741Z,97776.00
2024-04-22T01:32:52.179Z,97783.00
2024-04-22T01:35:19.989Z,97775.00
2024-04-22T01:37:47.439Z,97765.00
2024-04-22T01:40:14.976Z,97759.00
2024-04-22T01:42:42.474Z,97777.00
2024-04-22T01:45:10.196Z,97778.00
2024-04-22T01:47:37.551Z,97772.00
2024-04-22T01:50:05.853Z,97776.00
2024-04-22T01:52:33.310Z,97769.00
2024-04-22T01:55:00.727Z,97768.00
2024-04-22T01:57:28.383Z,97769.00
2024-04-22T01:59:55.998Z,97782.00
2024-04-22T02:02:23.448Z,97769.00
2024-04-22T02:04:50.855Z,97781.00
2024-04-22T02:07:18.352Z,97781.00
2024-04-22T02:09:45.799Z,97775.00
2024-04-22T02:12:13.408Z,97779.00
2024-04-22T02:14:41.148Z,97775.00
2024-04-22T02:17:08.547Z,97783.00
2024-04-22T02:19:36.152Z,97778.00
2024-04-22T02:22:03.708Z,97779.00
2024-04-22T02:24:31.046Z,97768.00
2024-04-22T02:26:59.342Z,97769.00
2024-04-22T02:29:26.773Z,97765.00
2024-04-22T02:31:54.153Z,97771.00
2024-04-22T02:34:21.621Z,97769.00
2024-04-22T02:36:49.072Z,97772.00
2024-04-22T02:39:16.566Z,97767.00
2024-04-22T02:41:43.990Z,97780.00
2024-04-22T02:44:11.573Z,97767.00
2024-04-22T02:46:38.966Z,97778.00
2024-04-22T02:49:06.459Z,97773.00
2024-04-22T02:51:33.942Z,97769.00
2024-04-22T02:54:01.328Z,97773.00
2024-04-22T02:56:28.788Z,97773.00
2024-04-22T02:58:56.230Z,97766.00
2024-04-22T03:01:23.716Z,97769.00
2024-04-22T03:03:51.586Z,97769.00
2024-04-22T03:06:19.117Z,97771.00
2024-04-22T03:08:46.543Z,97758.00
2024-04-22T03:11:14.228Z,97753.00
2024-04-22T03:13:41.792Z,97756.00
2024-04-22T03:16:09.493Z,97757.00
2024-04-22T03:18:37.021Z,97758.00
2024-04-22T03:21:04.707Z,97759.00
2024-04-22T03:23:32.088Z,97756.00
2024-04-22T03:25:59.582Z,97758.00
2024-04-22T03:28:27.114Z,97756.00
2024-04-22T03:30:54.965Z,97761.00
2024-04-22T03:33:22.577Z,97754.00
2024-04-22T03:35:49.990Z,97758.00
2024-04-22T03:38:17.771Z,97754.00
2024-04-22T03:40:45.314Z,97759.00
2024-04-22T03:43:13.539Z,97753.00
2024-04-22T03:45:41.107Z,97752.00
2024-04-22T03:48:27.432Z,97762.00
2024-04-22T03:50:56.106Z,97757.00
2024-04-22T03:53:24.731Z,97747.00
2024-04-22T03:55:52.306Z,97746.00
2024-04-22T03:58:19.741Z,97753.00
2024-04-22T04:00:47.283Z,97747.00
2024-04-22T04:03:14.686Z,97750.00
2024-04-22T04:05:42.216Z,97746.00
2024-04-22T04:08:09.548Z,97742.00
2024-04-22T04:10:37.044Z,97748.00
2024-04-22T04:13:04.697Z,97748.00
2024-04-22T04:15:34.327Z,97742.00
2024-04-22T04:18:01.799Z,97740.00
2024-04-22T04:20:29.318Z,97739.00
2024-04-22T04:22:57.359Z,97747.00
2024-04-22T04:25:24.814Z,97750.00
2024-04-22T04:27:52.179Z,97745.00
2024-04-22T04:33:00.850Z,97762.00
2024-04-22T04:35:28.371Z,97752.00
2024-04-22T04:37:55.756Z,97751.00
2024-04-22T04:40:23.267Z,97765.00
2024-04-22T04:42:50.642Z,97767.00
2024-04-22T04:45:18.104Z,97772.00
2024-04-22T04:51:36.484Z,97771.00
2024-04-22T04:57:10.052Z,97786.00
2024-04-22T04:59:55.396Z,97781.00
2024-04-22T05:02:45.951Z,97791.00
2024-04-22T05:05:31.945Z,97791.00
2024-04-22T05:08:15.282Z,97795.00
2024-04-22T05:10:51.414Z,97802.00
2024-04-22T05:13:18.929Z,97796.00
2024-04-22T05:15:48.595Z,97803.00
2024-04-22T05:18:43.998Z,97808.00
2024-04-22T05:21:44.243Z,97810.00
2024-04-22T05:24:18.036Z,97817.00
2024-04-22T05:26:55.584Z,97804.00
2024-04-22T05:29:23.004Z,97811.00
2024-04-22T05:31:50.572Z,97808.00
2024-04-22T05:35:07.763Z,97809.00
2024-04-22T05:37:35.732Z,97819.00
2024-04-22T05:40:03.153Z,97806.00
2024-04-22T05:42:30.535Z,97806.00
2024-04-22T05:44:57.992Z,97813.00
2024-04-22T05:47:25.496Z,97809.00
2024-04-22T05:49:53.043Z,97812.00
2024-04-22T05:52:22.887Z,97802.00
2024-04-22T05:54:50.396Z,97803.00
2024-04-22T05:57:20.148Z,97812.00
2024-04-22T05:59:47.577Z,97807.00
2024-04-22T06:02:15.167Z,97809.00
2024-04-22T06:04:42.757Z,97802.00
2024-04-22T06:07:10.315Z,97806.00
2024-04-22T06:09:37.737Z,97806.00
2024-04-22T06:12:15.265Z,97802.00
2024-04-22T06:14:46.910Z,97807.00
2024-04-22T06:17:14.609Z,97803.00
2024-04-22T06:19:42.247Z,97810.00
2024-04-22T06:22:09.921Z,97812.00
2024-04-22T06:24:37.310Z,97812.00
2024-04-22T06:27:05.200Z,97809.00
2024-04-22T06:29:32.567Z,97810.00
2024-04-22T06:32:00.691Z,97814.00
2024-04-22T06:34:28.265Z,97805.00
2024-04-22T06:36:55.759Z,97812.00
2024-04-22T06:39:23.318Z,97808.00
2024-04-22T06:41:50.834Z,97815.00
2024-04-22T06:44:18.292Z,97809.00
2024-04-22T06:46:45.862Z,97810.00
2024-04-22T06:49:13.390Z,97812.00
2024-04-22T06:51:40.822Z,97807.00
2024-04-22T06:54:08.332Z,97814.00
2024-04-22T06:56:35.760Z,97815.00
2024-04-22T06:59:03.484Z,97816.00
2024-04-22T07:01:38.193Z,97821.00
2024-04-22T07:04:07.878Z,97824.00
2024-04-22T07:06:35.435Z,97824.00
2024-04-22T07:09:11.457Z,97825.00
2024-04-22T07:11:39.380Z,97817.00
2024-04-22T07:14:13.160Z,97829.00
2024-04-22T07:16:43.761Z,97825.00
2024-04-22T07:19:13.476Z,97826.00
2024-04-22T07:21:40.965Z,97827.00
2024-04-22T07:24:08.641Z,97818.00
2024-04-22T07:26:36.534Z,97812.00
2024-04-22T07:29:04.316Z,97820.00
2024-04-22T07:31:33.955Z,97818.00
2024-04-22T07:34:02.565Z,97824.00
2024-04-22T07:36:38.941Z,97827.00
2024-04-22T07:39:07.903Z,97817.00
2024-04-22T07:41:35.641Z,97818.00
2024-04-22T07:44:03.415Z,97814.00
2024-04-22T07:46:31.992Z,97822.00
2024-04-22T07:48:59.665Z,97820.00
2024-04-22T07:51:27.033Z,97828.00
2024-04-22T07:53:54.867Z,97823.00
2024-04-22T07:56:23.053Z,97817.00
2024-04-22T07:58:50.886Z,97812.00
2024-04-22T08:01:18.660Z,97811.00
2024-04-22T08:03:46.851Z,97818.00
2024-04-22T08:06:22.054Z,97816.00
2024-04-22T08:08:49.719Z,97814.00
2024-04-22T08:11:17.507Z,97823.00
2024-04-22T08:13:45.222Z,97823.00
2024-04-22T08:16:12.844Z,97819.00
2024-04-22T08:18:40.231Z,97819.00
2024-04-22T08:21:09.599Z,97828.00
2024-04-22T08:23:38.031Z,97830.00
2024-04-22T08:26:05.751Z,97813.00
2024-04-22T08:28:33.358Z,97824.00
2024-04-22T08:31:06.058Z,97834.00
2024-04-22T08:33:33.646Z,97827.00
2024-04-22T08:36:01.572Z,97830.00
2024-04-22T08:38:29.040Z,97835.00
2024-04-22T08:40:57.259Z,97836.00
2024-04-22T08:43:25.091Z,97838.00
2024-04-22T08:45:53.120Z,97835.00
2024-04-22T08:48:21.142Z,97844.00
2024-04-22T08:50:53.891Z,97844.00
2024-04-22T08:53:21.650Z,97841.00
2024-04-22T08:55:49.192Z,97831.00
2024-04-22T08:58:17.337Z,97839.00
2024-04-22T09:00:45.021Z,97840.00
2024-04-22T09:03:12.527Z,97841.00
2024-04-22T09:05:41.085Z,97846.00
2024-04-22T09:08:10.955Z,97835.00
2024-04-22T09:11:06.482Z,97835.00
2024-04-22T09:13:26.183Z,97839.00
2024-04-22T09:16:00.375Z,97835.00
2024-04-22T09:18:29.646Z,97832.00
2024-04-22T09:21:12.062Z,97833.00
2024-04-22T09:23:39.930Z,97834.00
2024-04-22T09:26:07.896Z,97844.00
2024-04-22T09:28:37.824Z,97836.00
2024-04-22T09:31:07.135Z,97837.00
2024-04-22T09:33:36.578Z,97831.00
2024-04-22T09:36:05.981Z,97831.00
2024-04-22T09:38:43.597Z,97836.00
2024-04-22T09:41:15.662Z,97819.00
2024-04-22T09:43:49.903Z,97831.00
2024-04-22T09:46:21.849Z,97827.00
2024-04-22T09:48:50.234Z,97828.00
2024-04-22T09:51:19.606Z,97826.00
2024-04-22T09:53:48.103Z,97816.00
2024-04-22T09:56:23.397Z,97825.00
2024-04-22T09:58:51.167Z,97821.00
2024-04-22T10:01:19.300Z,97826.00
2024-04-22T10:03:48.601Z,97819.00
2024-04-22T10:06:19.153Z,97823.00
2024-04-22T10:08:49.464Z,97815.00
2024-04-22T10:11:19.220Z,97815.00
2024-04-22T10:13:47.411Z,97802.00
2024-04-22T10:16:16.140Z,97811.00
2024-04-22T10:18:51.193Z,97804.00
2024-04-22T10:21:21.156Z,97799.00
2024-04-22T10:23:49.555Z,97803.00
2024-04-22T10:26:21.446Z,97798.00
2024-04-22T10:28:49.070Z,97791.00
2024-04-22T10:31:23.961Z,97777.00
2024-04-22T10:33:51.667Z,97789.00
2024-04-22T10:36:19.860Z,97782.00
2024-04-22T10:38:47.454Z,97794.00
2024-04-22T10:41:16.164Z,97792.00
2024-04-22T10:43:46.760Z,97787.00
2024-04-22T10:46:14.438Z,97785.00
2024-04-22T10:48:42.483Z,97789.00
2024-04-22T10:51:12.453Z,97781.00
2024-04-22T10:53:39.849Z,97784.00
2024-04-22T10:56:09.514Z,97786.00
2024-04-22T10:58:37.092Z,97783.00
2024-04-22T11:01:05.123Z,97782.00
2024-04-22T11:03:32.812Z,97787.00
2024-04-22T11:06:07.186Z,97784.00
2024-04-22T11:08:35.319Z,97783.00
2024-04-22T11:11:03.230Z,97774.00
2024-04-22T11:13:31.333Z,97777.00
2024-04-22T11:16:11.440Z,97776.00
2024-04-22T11:18:39.761Z,97776.00
2024-04-22T11:21:07.192Z,97779.00
2024-04-22T11:23:34.778Z,97782.00
2024-04-22T11:26:02.254Z,97776.00
2024-04-22T11:28:29.942Z,97781.00
2024-04-22T11:30:57.375Z,97770.00
2024-04-22T11:33:25.329Z,97780.00
2024-04-22T11:35:52.816Z,97771.00
2024-04-22T11:38:22.187Z,97766.00
2024-04-22T11:40:49.702Z,97773.00
2024-04-22T11:43:17.915Z,97766.00
2024-04-22T11:45:45.449Z,97771.00
2024-04-22T11:48:13.227Z,97774.00
2024-04-22T11:50:44.559Z,97766.00
2024-04-22T11:53:18.351Z,97765.00
2024-04-22T11:55:51.722Z,97766.00
2024-04-22T11:58:22.502Z,97758.00
2024-04-22T12:00:50.832Z,97751.00
2024-04-22T12:03:18.224Z,97758.00
2024-04-22T12:05:45.778Z,97760.00
2024-04-22T12:08:13.905Z,97754.00
2024-04-22T12:10:41.424Z,97754.00
2024-04-22T12:13:08.909Z,97743.00
2024-04-22T12:15:36.541Z,97742.00
2024-04-22T12:18:04.176Z,97745.00
2024-04-22T12:20:31.941Z,97734.00
2024-04-22T12:22:59.440Z,97746.00
2024-04-22T12:25:26.900Z,97740.00
2024-04-22T12:27:59.219Z,97731.00
2024-04-22T12:30:33.149Z,97734.00
2024-04-22T12:33:00.724Z,97729.00
2024-04-22T12:35:28.263Z,97733.00
2024-04-22T12:37:55.827Z,97721.00
2024-04-22T12:40:23.511Z,97721.00
2024-04-22T12:42:56.632Z,97724.00
2024-04-22T12:45:29.513Z,97707.00
2024-04-22T12:51:10.198Z,97711.00
2024-04-22T12:53:37.666Z,97693.00
2024-04-22T12:56:06.378Z,97701.00
2024-04-22T12:58:38.610Z,97705.00
2024-04-22T13:01:06.478Z,97701.00
2024-04-22T13:03:35.015Z,97703.00
2024-04-22T13:06:03.106Z,97689.00
2024-04-22T13:08:30.756Z,97705.00
2024-04-22T13:10:58.599Z,97698.00
2024-04-22T13:13:26.247Z,97692.00
2024-04-22T13:15:53.836Z,97694.00
2024-04-22T13:18:22.139Z,97691.00
2024-04-22T13:20:50.389Z,97687.00
2024-04-22T13:23:17.883Z,97677.00
2024-04-22T13:25:45.469Z,97667.00
2024-04-22T13:28:13.013Z,97672.00
2024-04-22T13:30:44.492Z,97673.00
2024-04-22T13:33:12.052Z,97668.00
2024-04-22T13:35:39.629Z,97668.00
2024-04-22T13:38:07.142Z,97660.00
2024-04-22T13:40:36.568Z,97665.00
2024-04-22T13:43:04.638Z,97657.00
2024-04-22T13:45:33.266Z,97658.00
2024-04-22T13:48:00.828Z,97668.00
2024-04-22T13:50:28.265Z,97671.00
2024-04-22T13:52:55.892Z,97660.00
2024-04-22T13:55:23.403Z,97661.00
2024-04-22T13:57:50.740Z,97654.00
2024-04-22T14:00:18.886Z,97658.00
2024-04-22T14:02:46.489Z,97663.00
2024-04-22T14:05:14.970Z,97670.00
2024-04-22T14:07:42.323Z,97673.00
2024-04-22T14:10:10.025Z,97668.00
2024-04-22T14:12:37.710Z,97670.00
2024-04-22T14:15:06.193Z,97673.00
2024-04-22T14:17:34.024Z,97666.00
2024-04-22T14:20:01.543Z,97667.00
2024-04-22T14:22:28.950Z,97667.00
2024-04-22T14:24:56.344Z,97674.00
2024-04-22T14:27:23.708Z,97668.00
2024-04-22T14:29:51.062Z,97662.00
2024-04-22T14:32:18.575Z,97660.00
2024-04-22T14:34:46.151Z,97675.00
2024-04-22T14:37:13.647Z,97661.00
2024-04-22T14:39:41.077Z,97658.00
2024-04-22T14:42:08.556Z,97654.00
2024-04-22T14:44:41.291Z,97647.00
2024-04-22T14:47:09.416Z,97659.00
2024-04-22T14:49:36.880Z,97653.00
2024-04-22T14:52:05.527Z,97648.00
2024-04-22T14:54:32.988Z,97648.00
2024-04-22T14:57:00.428Z,97645.00
2024-04-22T14:59:27.846Z,97647.00
2024-04-22T15:01:55.376Z,97649.00
2024-04-22T15:04:23.391Z,97646.00
2024-04-22T15:06:51.767Z,97644.00
2024-04-22T15:09:19.186Z,97648.00
2024-04-22T15:11:46.805Z,97647.00
2024-04-22T15:14:14.567Z,97649.00
2024-04-22T15:26:35.679Z,97633.00
2024-04-22T15:29:03.943Z,97631.00
2024-04-22T15:31:31.493Z,97636.00
2024-04-22T15:33:58.990Z,97636.00
2024-04-22T15:36:26.455Z,97638.00
2024-04-22T15:38:53.897Z,97632.00
2024-04-22T15:41:23.527Z,97635.00
2024-04-22T15:43:51.170Z,97636.00
2024-04-22T15:46:18.705Z,97633.00
2024-04-22T15:48:47.535Z,97621.00
2024-04-22T15:51:15.766Z,97627.00
2024-04-22T15:53:43.194Z,97634.00
2024-04-22T15:56:11.124Z,97626.00
2024-04-22T15:58:41.738Z,97612.00
2024-04-22T16:01:09.394Z,97618.00
2024-04-22T16:03:37.088Z,97616.00
2024-04-22T16:06:06.672Z,97607.00
2024-04-22T16:08:34.082Z,97614.00
2024-04-22T16:11:01.967Z,97613.00
2024-04-22T16:13:29.734Z,97606.00
2024-04-22T16:15:57.791Z,97602.00
2024-04-22T16:18:25.154Z,97599.00
2024-04-22T16:21:01.121Z,97600.00
2024-04-22T16:23:35.740Z,97600.00
2024-04-22T16:26:04.146Z,97591.00
2024-04-22T16:28:36.745Z,97589.00
2024-04-22T16:31:09.464Z,97585.00
2024-04-22T16:33:42.856Z,97591.00
2024-04-22T16:36:12.469Z,97591.00
2024-04-22T16:38:40.829Z,97582.00
2024-04-22T16:41:11.064Z,97593.00
2024-04-22T16:43:40.890Z,97587.00
2024-04-22T16:46:09.008Z,97595.00
2024-04-22T16:48:36.610Z,97593.00
2024-04-22T16:51:04.413Z,97606.00
2024-04-22T16:53:31.855Z,97600.00
2024-04-22T16:55:59.964Z,97601.00
2024-04-22T16:58:27.379Z,97597.00
2024-04-22T17:00:54.925Z,97601.00
2024-04-22T17:03:22.366Z,97593.00
2024-04-22T17:05:49.828Z,97590.00
2024-04-22T17:08:17.186Z,97581.00
2024-04-22T17:10:45.677Z,97584.00
2024-04-22T17:13:13.111Z,97578.00
2024-04-22T17:15:40.629Z,97581.00
2024-04-22T17:18:08.224Z,97582.00
2024-04-22T17:20:35.816Z,97579.00
2024-04-22T17:23:19.453Z,97573.00
2024-04-22T17:25:46.863Z,97573.00
2024-04-22T17:28:15.735Z,97571.00
2024-04-22T17:30:43.181Z,97565.00
2024-04-22T17:33:10.850Z,97563.00
2024-04-22T17:35:39.342Z,97558.00
2024-04-22T17:38:06.988Z,97558.00
2024-04-22T17:40:35.809Z,97560.00
2024-04-22T17:43:03.820Z,97555.00
2024-04-22T17:45:31.584Z,97566.00
2024-04-22T17:47:59.170Z,97561.00
2024-04-22T17:50:26.735Z,97560.00
2024-04-22T17:52:55.583Z,97560.00
2024-04-22T17:55:25.990Z,97569.00
2024-04-22T17:57:55.947Z,97571.00
2024-04-22T18:00:23.540Z,97567.00
2024-04-22T18:02:51.004Z,97564.00
2024-04-22T18:05:18.496Z,97569.00
2024-04-22T18:07:47.173Z,97571.00
2024-04-22T18:10:16.963Z,97571.00
2024-04-22T18:12:44.635Z,97566.00
2024-04-22T18:15:12.007Z,97566.00
2024-04-22T18:17:39.486Z,97574.00
2024-04-22T18:20:21.224Z,97584.00
2024-04-22T18:22:53.978Z,97584.00
2024-04-22T18:25:42.303Z,97584.00
2024-04-22T18:28:31.234Z,97587.00
2024-04-22T18:31:02.447Z,97589.00
2024-04-22T18:33:42.248Z,97585.00
2024-04-22T18:36:14.434Z,97597.00
2024-04-22T18:38:54.868Z,97597.00
2024-04-22T18:41:22.612Z,97601.00
2024-04-22T18:43:55.959Z,97596.00
2024-04-22T18:46:28.301Z,97599.00
2024-04-22T18:49:03.261Z,97610.00
2024-04-22T18:51:43.509Z,97598.00
2024-04-22T18:54:29.896Z,97605.00
2024-04-22T18:57:15.770Z,97600.00
2024-04-22T19:00:00.765Z,97598.00
2024-04-22T19:02:40.084Z,97595.00
2024-04-22T19:05:20.346Z,97594.00
2024-04-22T19:07:55.964Z,97587.00
2024-04-22T19:10:30.872Z,97594.00
2024-04-22T19:12:58.673Z,97595.00
2024-04-22T19:15:26.157Z,97603.00
2024-04-22T19:17:53.550Z,97595.00
2024-04-22T19:20:21.001Z,97597.00
2024-04-22T19:22:48.572Z,97598.00
2024-04-22T19:25:16.332Z,97602.00
2024-04-22T19:27:43.814Z,97597.00
2024-04-22T19:30:11.579Z,97596.00
2024-04-22T19:32:39.207Z,97592.00
2024-04-22T19:35:23.159Z,97588.00
2024-04-22T19:38:13.235Z,97591.00
2024-04-22T19:40:56.113Z,97585.00
2024-04-22T19:43:34.581Z,97593.00
2024-04-22T19:46:03.092Z,97588.00
2024-04-22T19:48:32.207Z,97604.00
2024-04-22T19:50:59.644Z,97591.00
2024-04-22T19:53:27.417Z,97595.00
2024-04-22T19:55:56.494Z,97586.00
2024-04-22T19:58:24.048Z,97591.00
2024-04-22T20:00:51.520Z,97587.00
2024-04-22T20:03:19.021Z,97578.00
2024-04-22T20:05:46.574Z,97586.00
2024-04-22T20:08:20.108Z,97583.00
2024-04-22T20:10:50.532Z,97585.00
2024-04-22T20:13:19.580Z,97597.00
2024-04-22T20:16:13.494Z,97590.00
2024-04-22T20:18:42.766Z,97596.00
2024-04-22T20:21:10.419Z,97597.00
2024-04-22T20:23:37.861Z,97586.00
2024-04-22T20:26:05.486Z,97588.00
2024-04-22T20:28:33.724Z,97589.00
2024-04-22T20:31:03.245Z,97597.00
2024-04-22T20:33:30.777Z,97593.00
2024-04-22T20:35:58.452Z,97602.00
2024-04-22T20:38:27.302Z,97609.00
2024-04-22T20:41:00.603Z,97601.00
2024-04-22T20:43:33.697Z,97610.00
2024-04-22T20:46:02.482Z,97612.00
2024-04-22T20:48:37.938Z,97606.00
2024-04-22T20:51:10.468Z,97610.00
2024-04-22T20:53:37.917Z,97610.00
2024-04-22T20:56:06.330Z,97619.00
2024-04-22T20:58:37.409Z,97615.00
2024-04-22T21:01:09.945Z,97625.00
2024-04-22T21:03:37.915Z,97614.00
2024-04-22T21:06:06.257Z,97613.00
2024-04-22T21:08:34.563Z,97616.00
2024-04-22T21:11:04.450Z,97616.00
2024-04-22T21:14:00.526Z,97609.00
2024-04-22T21:16:29.502Z,97610.00
2024-04-22T21:19:07.149Z,97622.00
2024-04-22T21:21:39.233Z,97616.00
2024-04-22T21:24:06.860Z,97618.00
2024-04-22T21:26:34.260Z,97618.00
2024-04-22T21:29:01.823Z,97610.00
2024-04-22T21:31:29.320Z,97616.00
2024-04-22T21:34:07.852Z,97615.00
2024-04-22T21:36:37.627Z,97615.00
2024-04-22T21:39:05.563Z,97624.00
2024-04-22T21:41:33.017Z,97611.00
2024-04-22T21:44:20.094Z,97625.00
2024-04-22T21:46:47.621Z,97615.00
2024-04-22T21:49:15.063Z,97602.00
2024-04-22T21:51:42.419Z,97607.00
2024-04-22T21:54:10.569Z,97606.00
2024-04-22T21:56:37.734Z,97603.00
2024-04-22T22:00:01.564Z,97599.00
2024-04-22T22:03:25.566Z,97592.00
2024-04-22T22:06:49.518Z,97606.00
2024-04-22T22:09:32.700Z,97614.00
2024-04-22T22:12:01.170Z,97603.00
2024-04-22T22:14:29.035Z,97608.00
2024-04-22T22:16:56.520Z,97615.00
2024-04-22T22:19:24.420Z,97620.00
2024-04-22T22:21:51.860Z,97615.00
2024-04-22T22:24:19.300Z,97620.00
2024-04-22T22:26:47.039Z,97620.00
2024-04-22T22:29:14.461Z,97619.00
2024-04-22T22:31:41.970Z,97606.00
2024-04-22T22:34:09.342Z,97606.00
2024-04-22T22:36:36.830Z,97617.00
2024-04-22T22:39:04.382Z,97621.00
2024-04-22T22:41:31.925Z,97618.00
2024-04-22T22:43:59.355Z,97618.00
2024-04-22T22:46:26.778Z,97613.00
2024-04-22T22:48:54.215Z,97612.00
2024-04-22T22:51:21.671Z,97606.00
2024-04-22T22:53:49.206Z,97602.00
2024-04-22T22:56:16.749Z,97598.00
2024-04-22T22:58:44.261Z,97589.00
2024-04-22T23:01:11.611Z,97589.00
2024-04-22T23:03:39.074Z,97578.00
2024-04-22T23:06:06.830Z,97584.00
2024-04-22T23:08:34.384Z,97575.00
2024-04-22T23:11:02.070Z,97572.00
2024-04-22T23:13:29.727Z,97576.00
2024-04-22T23:15:57.144Z,97574.00
2024-04-22T23:18:24.578Z,97566.00
2024-04-22T23:20:52.266Z,97568.00
2024-04-22T23:23:19.732Z,97554.00
2024-04-22T23:25:47.156Z,97564.00
2024-04-22T23:28:14.546Z,97555.00
2024-04-22T23:30:41.929Z,97566.00
2024-04-22T23:33:09.498Z,97564.00
2024-04-22T23:35:36.993Z,97563.00
2024-04-22T23:38:04.564Z,97552.00
2024-04-22T23:40:32.090Z,97533.00
2024-04-22T23:42:59.545Z,97544.00
2024-04-22T23:45:27.257Z,97537.00
2024-04-22T23:47:54.884Z,97539.00
2024-04-22T23:50:22.439Z,97523.00
2024-04-22T23:52:49.866Z,97524.00
2024-04-22T23:55:17.399Z,97514.00
2024-04-22T23:57:44.748Z,97504.00
